sensor_id;sensor_type;location;lat;lon;timestamp;P1;durP1;ratioP1;P2;durP2;ratioP2
55090;SDS011;40985;53.180;5.800;2023-07-20T00:00:52;1.23;;;0.30;;
55090;SDS011;40985;53.180;5.800;2023-07-20T00:03:18;1.77;;;0.30;;
55090;SDS011;40985;53.180;5.800;2023-07-20T00:05:48;1.67;;;0.43;;
55090;SDS011;40985;53.180;5.800;2023-07-20T00:08:15;1.50;;;0.50;;
55090;SDS011;40985;53.180;5.800;2023-07-20T00:10:42;1.33;;;0.70;;
55090;SDS011;40985;53.180;5.800;2023-07-20T00:13:08;0.52;;;0.50;;
55090;SDS011;40985;53.180;5.800;2023-07-20T00:15:34;1.27;;;0.60;;
55090;SDS011;40985;53.180;5.800;2023-07-20T00:18:00;0.90;;;0.70;;
55090;SDS011;40985;53.180;5.800;2023-07-20T00:20:26;1.50;;;0.70;;
55090;SDS011;40985;53.180;5.800;2023-07-20T00:22:52;2.63;;;0.85;;
55090;SDS011;40985;53.180;5.800;2023-07-20T00:25:19;1.92;;;0.65;;
55090;SDS011;40985;53.180;5.800;2023-07-20T00:27:45;3.38;;;0.98;;
55090;SDS011;40985;53.180;5.800;2023-07-20T00:30:11;1.48;;;1.08;;
55090;SDS011;40985;53.180;5.800;2023-07-20T00:32:37;1.88;;;1.00;;
55090;SDS011;40985;53.180;5.800;2023-07-20T00:35:04;2.75;;;0.98;;
55090;SDS011;40985;53.180;5.800;2023-07-20T00:37:29;2.15;;;1.05;;
55090;SDS011;40985;53.180;5.800;2023-07-20T00:39:55;3.97;;;0.93;;
55090;SDS011;40985;53.180;5.800;2023-07-20T00:42:21;1.23;;;1.13;;
55090;SDS011;40985;53.180;5.800;2023-07-20T00:44:47;0.90;;;0.75;;
55090;SDS011;40985;53.180;5.800;2023-07-20T00:47:13;1.52;;;1.02;;
55090;SDS011;40985;53.180;5.800;2023-07-20T00:49:38;1.42;;;1.02;;
55090;SDS011;40985;53.180;5.800;2023-07-20T00:52:06;1.58;;;1.20;;
55090;SDS011;40985;53.180;5.800;2023-07-20T00:54:32;3.40;;;0.90;;
55090;SDS011;40985;53.180;5.800;2023-07-20T00:56:59;2.33;;;0.80;;
55090;SDS011;40985;53.180;5.800;2023-07-20T00:59:26;2.10;;;0.98;;
55090;SDS011;40985;53.180;5.800;2023-07-20T01:01:52;0.80;;;0.68;;
55090;SDS011;40985;53.180;5.800;2023-07-20T01:04:18;2.67;;;1.23;;
55090;SDS011;40985;53.180;5.800;2023-07-20T01:06:50;1.95;;;0.70;;
55090;SDS011;40985;53.180;5.800;2023-07-20T01:09:36;1.17;;;0.80;;
55090;SDS011;40985;53.180;5.800;2023-07-20T01:15:05;1.33;;;0.77;;
55090;SDS011;40985;53.180;5.800;2023-07-20T01:17:33;1.65;;;0.60;;
55090;SDS011;40985;53.180;5.800;2023-07-20T01:19:59;1.13;;;0.50;;
55090;SDS011;40985;53.180;5.800;2023-07-20T01:33:52;1.50;;;0.60;;
55090;SDS011;40985;53.180;5.800;2023-07-20T01:36:21;1.00;;;0.90;;
55090;SDS011;40985;53.180;5.800;2023-07-20T01:38:49;1.73;;;0.70;;
55090;SDS011;40985;53.180;5.800;2023-07-20T01:41:16;1.33;;;0.80;;
55090;SDS011;40985;53.180;5.800;2023-07-20T01:43:43;1.23;;;0.60;;
55090;SDS011;40985;53.180;5.800;2023-07-20T01:46:09;0.93;;;0.90;;
55090;SDS011;40985;53.180;5.800;2023-07-20T01:48:34;2.00;;;0.80;;
55090;SDS011;40985;53.180;5.800;2023-07-20T01:51:00;1.17;;;0.80;;
55090;SDS011;40985;53.180;5.800;2023-07-20T01:53:26;0.93;;;0.70;;
55090;SDS011;40985;53.180;5.800;2023-07-20T01:55:54;1.17;;;0.82;;
55090;SDS011;40985;53.180;5.800;2023-07-20T01:58:21;1.30;;;1.00;;
55090;SDS011;40985;53.180;5.800;2023-07-20T02:00:47;1.45;;;0.85;;
55090;SDS011;40985;53.180;5.800;2023-07-20T02:03:12;2.78;;;0.90;;
55090;SDS011;40985;53.180;5.800;2023-07-20T02:05:38;3.47;;;1.20;;
55090;SDS011;40985;53.180;5.800;2023-07-20T02:08:04;2.70;;;1.02;;
55090;SDS011;40985;53.180;5.800;2023-07-20T02:10:30;1.85;;;1.00;;
55090;SDS011;40985;53.180;5.800;2023-07-20T02:12:55;1.00;;;1.00;;
55090;SDS011;40985;53.180;5.800;2023-07-20T02:15:21;1.60;;;1.50;;
55090;SDS011;40985;53.180;5.800;2023-07-20T02:17:47;1.20;;;1.08;;
55090;SDS011;40985;53.180;5.800;2023-07-20T02:20:13;2.17;;;1.80;;
55090;SDS011;40985;53.180;5.800;2023-07-20T02:22:39;1.17;;;0.82;;
55090;SDS011;40985;53.180;5.800;2023-07-20T02:25:05;2.03;;;1.63;;
55090;SDS011;40985;53.180;5.800;2023-07-20T02:27:32;1.98;;;1.50;;
55090;SDS011;40985;53.180;5.800;2023-07-20T02:29:59;4.15;;;1.30;;
55090;SDS011;40985;53.180;5.800;2023-07-20T02:32:25;2.05;;;1.20;;
55090;SDS011;40985;53.180;5.800;2023-07-20T02:34:50;2.53;;;1.33;;
55090;SDS011;40985;53.180;5.800;2023-07-20T02:37:16;3.55;;;1.52;;
55090;SDS011;40985;53.180;5.800;2023-07-20T02:39:42;1.30;;;1.20;;
55090;SDS011;40985;53.180;5.800;2023-07-20T02:42:08;2.85;;;1.50;;
55090;SDS011;40985;53.180;5.800;2023-07-20T02:44:34;2.03;;;1.73;;
55090;SDS011;40985;53.180;5.800;2023-07-20T02:46:59;1.58;;;1.50;;
55090;SDS011;40985;53.180;5.800;2023-07-20T02:49:26;2.75;;;1.30;;
55090;SDS011;40985;53.180;5.800;2023-07-20T02:51:51;3.85;;;1.48;;
55090;SDS011;40985;53.180;5.800;2023-07-20T02:54:17;2.45;;;1.60;;
55090;SDS011;40985;53.180;5.800;2023-07-20T02:56:43;1.90;;;1.40;;
55090;SDS011;40985;53.180;5.800;2023-07-20T02:59:09;1.83;;;1.60;;
55090;SDS011;40985;53.180;5.800;2023-07-20T03:01:34;1.77;;;1.20;;
55090;SDS011;40985;53.180;5.800;2023-07-20T03:04:00;1.10;;;1.08;;
55090;SDS011;40985;53.180;5.800;2023-07-20T03:06:26;1.73;;;1.30;;
55090;SDS011;40985;53.180;5.800;2023-07-20T03:08:52;1.80;;;1.70;;
55090;SDS011;40985;53.180;5.800;2023-07-20T03:11:19;3.22;;;1.70;;
55090;SDS011;40985;53.180;5.800;2023-07-20T03:13:45;1.60;;;1.50;;
55090;SDS011;40985;53.180;5.800;2023-07-20T03:16:12;1.42;;;1.33;;
55090;SDS011;40985;53.180;5.800;2023-07-20T03:18:40;1.70;;;1.60;;
55090;SDS011;40985;53.180;5.800;2023-07-20T03:21:07;3.50;;;2.05;;
55090;SDS011;40985;53.180;5.800;2023-07-20T03:23:34;3.83;;;1.75;;
55090;SDS011;40985;53.180;5.800;2023-07-20T03:26:02;2.28;;;1.95;;
55090;SDS011;40985;53.180;5.800;2023-07-20T03:28:28;2.25;;;2.08;;
55090;SDS011;40985;53.180;5.800;2023-07-20T03:30:54;3.08;;;1.58;;
55090;SDS011;40985;53.180;5.800;2023-07-20T03:33:26;2.17;;;1.83;;
55090;SDS011;40985;53.180;5.800;2023-07-20T03:35:56;2.95;;;1.98;;
55090;SDS011;40985;53.180;5.800;2023-07-20T03:38:22;2.17;;;1.80;;
55090;SDS011;40985;53.180;5.800;2023-07-20T03:40:58;1.80;;;1.70;;
55090;SDS011;40985;53.180;5.800;2023-07-20T03:43:26;2.10;;;1.73;;
55090;SDS011;40985;53.180;5.800;2023-07-20T03:45:53;3.60;;;1.88;;
55090;SDS011;40985;53.180;5.800;2023-07-20T03:48:20;4.65;;;2.00;;
55090;SDS011;40985;53.180;5.800;2023-07-20T03:50:47;3.28;;;1.90;;
55090;SDS011;40985;53.180;5.800;2023-07-20T03:53:15;3.28;;;1.88;;
55090;SDS011;40985;53.180;5.800;2023-07-20T03:55:45;3.10;;;2.05;;
55090;SDS011;40985;53.180;5.800;2023-07-20T03:58:12;1.70;;;1.60;;
55090;SDS011;40985;53.180;5.800;2023-07-20T04:00:38;2.20;;;1.65;;
55090;SDS011;40985;53.180;5.800;2023-07-20T04:03:05;1.95;;;1.77;;
55090;SDS011;40985;53.180;5.800;2023-07-20T04:05:30;2.38;;;2.17;;
55090;SDS011;40985;53.180;5.800;2023-07-20T04:07:56;1.55;;;1.45;;
55090;SDS011;40985;53.180;5.800;2023-07-20T04:10:22;1.95;;;1.85;;
55090;SDS011;40985;53.180;5.800;2023-07-20T04:12:47;2.60;;;2.40;;
55090;SDS011;40985;53.180;5.800;2023-07-20T04:15:13;5.00;;;2.13;;
55090;SDS011;40985;53.180;5.800;2023-07-20T04:17:40;4.97;;;2.25;;
55090;SDS011;40985;53.180;5.800;2023-07-20T04:20:06;4.57;;;2.20;;
55090;SDS011;40985;53.180;5.800;2023-07-20T04:22:32;2.15;;;2.05;;
55090;SDS011;40985;53.180;5.800;2023-07-20T04:24:58;2.17;;;1.98;;
55090;SDS011;40985;53.180;5.800;2023-07-20T04:27:24;5.05;;;2.67;;
55090;SDS011;40985;53.180;5.800;2023-07-20T04:29:50;2.33;;;2.13;;
55090;SDS011;40985;53.180;5.800;2023-07-20T04:32:15;4.45;;;1.70;;
55090;SDS011;40985;53.180;5.800;2023-07-20T04:34:41;2.83;;;1.80;;
55090;SDS011;40985;53.180;5.800;2023-07-20T04:37:07;2.33;;;2.03;;
55090;SDS011;40985;53.180;5.800;2023-07-20T04:39:33;3.30;;;1.92;;
55090;SDS011;40985;53.180;5.800;2023-07-20T04:41:59;3.13;;;2.10;;
55090;SDS011;40985;53.180;5.800;2023-07-20T04:44:24;1.98;;;1.88;;
55090;SDS011;40985;53.180;5.800;2023-07-20T04:46:50;3.85;;;2.38;;
55090;SDS011;40985;53.180;5.800;2023-07-20T04:49:16;2.08;;;1.92;;
55090;SDS011;40985;53.180;5.800;2023-07-20T04:51:41;1.95;;;1.60;;
55090;SDS011;40985;53.180;5.800;2023-07-20T04:54:07;2.45;;;1.83;;
55090;SDS011;40985;53.180;5.800;2023-07-20T04:56:32;3.40;;;1.83;;
55090;SDS011;40985;53.180;5.800;2023-07-20T04:58:58;3.03;;;2.00;;
55090;SDS011;40985;53.180;5.800;2023-07-20T05:01:24;1.83;;;1.73;;
55090;SDS011;40985;53.180;5.800;2023-07-20T05:03:51;1.88;;;1.70;;
55090;SDS011;40985;53.180;5.800;2023-07-20T05:06:17;2.05;;;1.95;;
55090;SDS011;40985;53.180;5.800;2023-07-20T05:08:43;2.67;;;2.47;;
55090;SDS011;40985;53.180;5.800;2023-07-20T05:11:09;5.40;;;1.80;;
55090;SDS011;40985;53.180;5.800;2023-07-20T05:13:35;1.70;;;1.58;;
55090;SDS011;40985;53.180;5.800;2023-07-20T05:16:01;2.83;;;1.60;;
55090;SDS011;40985;53.180;5.800;2023-07-20T05:18:27;2.53;;;1.80;;
55090;SDS011;40985;53.180;5.800;2023-07-20T05:20:52;3.08;;;1.98;;
55090;SDS011;40985;53.180;5.800;2023-07-20T05:23:20;2.10;;;1.95;;
55090;SDS011;40985;53.180;5.800;2023-07-20T05:25:47;2.65;;;1.92;;
55090;SDS011;40985;53.180;5.800;2023-07-20T05:28:19;4.97;;;1.73;;
55090;SDS011;40985;53.180;5.800;2023-07-20T05:30:44;2.10;;;1.90;;
55090;SDS011;40985;53.180;5.800;2023-07-20T05:33:10;5.22;;;2.25;;
55090;SDS011;40985;53.180;5.800;2023-07-20T05:35:36;8.32;;;2.85;;
55090;SDS011;40985;53.180;5.800;2023-07-20T05:38:02;2.45;;;2.25;;
55090;SDS011;40985;53.180;5.800;2023-07-20T05:40:29;3.38;;;3.08;;
55090;SDS011;40985;53.180;5.800;2023-07-20T05:42:55;2.83;;;2.63;;
55090;SDS011;40985;53.180;5.800;2023-07-20T05:45:22;3.30;;;2.50;;
55090;SDS011;40985;53.180;5.800;2023-07-20T05:47:48;3.22;;;2.92;;
55090;SDS011;40985;53.180;5.800;2023-07-20T05:50:13;2.97;;;2.78;;
55090;SDS011;40985;53.180;5.800;2023-07-20T05:52:39;3.17;;;2.90;;
55090;SDS011;40985;53.180;5.800;2023-07-20T05:55:06;6.03;;;2.17;;
55090;SDS011;40985;53.180;5.800;2023-07-20T05:57:32;5.20;;;1.77;;
55090;SDS011;40985;53.180;5.800;2023-07-20T05:59:58;2.90;;;0.63;;
55090;SDS011;40985;53.180;5.800;2023-07-20T06:02:24;4.65;;;0.43;;
55090;SDS011;40985;53.180;5.800;2023-07-20T06:04:50;2.67;;;0.40;;
55090;SDS011;40985;53.180;5.800;2023-07-20T06:07:15;1.52;;;0.20;;
55090;SDS011;40985;53.180;5.800;2023-07-20T06:09:41;4.25;;;0.32;;
55090;SDS011;40985;53.180;5.800;2023-07-20T06:12:07;6.25;;;0.30;;
55090;SDS011;40985;53.180;5.800;2023-07-20T06:14:33;0.73;;;0.35;;
55090;SDS011;40985;53.180;5.800;2023-07-20T06:16:59;1.48;;;0.20;;
55090;SDS011;40985;53.180;5.800;2023-07-20T06:19:25;3.80;;;0.20;;
55090;SDS011;40985;53.180;5.800;2023-07-20T06:21:51;1.15;;;0.20;;
55090;SDS011;40985;53.180;5.800;2023-07-20T06:24:17;0.82;;;0.15;;
55090;SDS011;40985;53.180;5.800;2023-07-20T06:26:43;0.93;;;0.40;;
55090;SDS011;40985;53.180;5.800;2023-07-20T06:29:09;1.90;;;0.20;;
55090;SDS011;40985;53.180;5.800;2023-07-20T06:31:35;1.98;;;0.20;;
55090;SDS011;40985;53.180;5.800;2023-07-20T06:34:01;1.20;;;0.13;;
55090;SDS011;40985;53.180;5.800;2023-07-20T06:36:27;2.65;;;0.28;;
55090;SDS011;40985;53.180;5.800;2023-07-20T06:38:53;3.58;;;0.47;;
55090;SDS011;40985;53.180;5.800;2023-07-20T06:41:19;1.25;;;0.25;;
55090;SDS011;40985;53.180;5.800;2023-07-20T06:43:45;3.33;;;0.28;;
55090;SDS011;40985;53.180;5.800;2023-07-20T06:46:11;1.33;;;0.20;;
55090;SDS011;40985;53.180;5.800;2023-07-20T06:48:37;1.70;;;0.40;;
55090;SDS011;40985;53.180;5.800;2023-07-20T06:51:03;1.77;;;0.32;;
55090;SDS011;40985;53.180;5.800;2023-07-20T06:53:29;4.40;;;0.68;;
55090;SDS011;40985;53.180;5.800;2023-07-20T06:55:55;4.03;;;0.57;;
55090;SDS011;40985;53.180;5.800;2023-07-20T06:58:24;3.42;;;0.40;;
55090;SDS011;40985;53.180;5.800;2023-07-20T07:00:51;2.50;;;0.50;;
55090;SDS011;40985;53.180;5.800;2023-07-20T07:03:16;3.53;;;0.45;;
55090;SDS011;40985;53.180;5.800;2023-07-20T07:05:43;2.70;;;0.40;;
55090;SDS011;40985;53.180;5.800;2023-07-20T07:08:10;1.48;;;0.38;;
55090;SDS011;40985;53.180;5.800;2023-07-20T07:10:36;2.35;;;0.40;;
55090;SDS011;40985;53.180;5.800;2023-07-20T07:13:02;2.33;;;0.40;;
55090;SDS011;40985;53.180;5.800;2023-07-20T07:15:28;1.83;;;0.50;;
55090;SDS011;40985;53.180;5.800;2023-07-20T07:17:54;2.58;;;0.70;;
55090;SDS011;40985;53.180;5.800;2023-07-20T07:20:20;1.75;;;0.40;;
55090;SDS011;40985;53.180;5.800;2023-07-20T07:22:45;2.25;;;0.47;;
55090;SDS011;40985;53.180;5.800;2023-07-20T07:25:12;1.65;;;0.40;;
55090;SDS011;40985;53.180;5.800;2023-07-20T07:27:37;2.33;;;0.30;;
55090;SDS011;40985;53.180;5.800;2023-07-20T07:30:03;1.85;;;0.40;;
55090;SDS011;40985;53.180;5.800;2023-07-20T07:32:30;2.05;;;0.35;;
55090;SDS011;40985;53.180;5.800;2023-07-20T07:34:56;1.63;;;0.40;;
55090;SDS011;40985;53.180;5.800;2023-07-20T07:37:23;1.05;;;0.47;;
55090;SDS011;40985;53.180;5.800;2023-07-20T07:39:49;3.55;;;0.60;;
55090;SDS011;40985;53.180;5.800;2023-07-20T07:42:15;1.63;;;0.70;;
55090;SDS011;40985;53.180;5.800;2023-07-20T07:44:40;1.33;;;0.50;;
55090;SDS011;40985;53.180;5.800;2023-07-20T07:47:06;1.83;;;0.45;;
55090;SDS011;40985;53.180;5.800;2023-07-20T07:49:32;1.83;;;0.65;;
55090;SDS011;40985;53.180;5.800;2023-07-20T07:51:58;2.05;;;0.50;;
55090;SDS011;40985;53.180;5.800;2023-07-20T07:54:24;2.03;;;0.43;;
55090;SDS011;40985;53.180;5.800;2023-07-20T07:56:50;1.98;;;0.65;;
55090;SDS011;40985;53.180;5.800;2023-07-20T07:59:16;1.80;;;0.57;;
55090;SDS011;40985;53.180;5.800;2023-07-20T08:01:42;1.98;;;0.63;;
55090;SDS011;40985;53.180;5.800;2023-07-20T08:04:08;2.90;;;0.70;;
55090;SDS011;40985;53.180;5.800;2023-07-20T08:06:33;3.15;;;0.30;;
55090;SDS011;40985;53.180;5.800;2023-07-20T08:08:59;2.65;;;0.40;;
55090;SDS011;40985;53.180;5.800;2023-07-20T08:11:25;2.15;;;0.38;;
55090;SDS011;40985;53.180;5.800;2023-07-20T08:13:50;2.15;;;0.30;;
55090;SDS011;40985;53.180;5.800;2023-07-20T08:16:16;2.70;;;0.40;;
55090;SDS011;40985;53.180;5.800;2023-07-20T08:18:43;1.98;;;0.50;;
55090;SDS011;40985;53.180;5.800;2023-07-20T08:21:10;5.13;;;0.63;;
55090;SDS011;40985;53.180;5.800;2023-07-20T08:23:36;4.30;;;0.50;;
55090;SDS011;40985;53.180;5.800;2023-07-20T08:26:01;4.25;;;0.50;;
55090;SDS011;40985;53.180;5.800;2023-07-20T08:28:27;4.60;;;0.40;;
55090;SDS011;40985;53.180;5.800;2023-07-20T08:30:54;5.18;;;0.50;;
55090;SDS011;40985;53.180;5.800;2023-07-20T08:33:19;3.38;;;0.40;;
55090;SDS011;40985;53.180;5.800;2023-07-20T08:35:45;3.33;;;0.40;;
55090;SDS011;40985;53.180;5.800;2023-07-20T08:38:11;4.28;;;0.68;;
55090;SDS011;40985;53.180;5.800;2023-07-20T08:40:44;4.15;;;0.40;;
55090;SDS011;40985;53.180;5.800;2023-07-20T08:43:11;4.32;;;0.50;;
55090;SDS011;40985;53.180;5.800;2023-07-20T08:45:38;3.72;;;0.30;;
55090;SDS011;40985;53.180;5.800;2023-07-20T08:48:05;3.13;;;0.50;;
55090;SDS011;40985;53.180;5.800;2023-07-20T08:50:32;4.93;;;0.70;;
55090;SDS011;40985;53.180;5.800;2023-07-20T08:52:59;2.53;;;0.40;;
55090;SDS011;40985;53.180;5.800;2023-07-20T08:55:26;3.35;;;0.35;;
55090;SDS011;40985;53.180;5.800;2023-07-20T08:57:55;2.17;;;0.63;;
55090;SDS011;40985;53.180;5.800;2023-07-20T09:00:22;3.55;;;0.30;;
55090;SDS011;40985;53.180;5.800;2023-07-20T09:02:50;2.70;;;0.30;;
55090;SDS011;40985;53.180;5.800;2023-07-20T09:05:17;2.33;;;0.40;;
55090;SDS011;40985;53.180;5.800;2023-07-20T09:07:43;2.97;;;0.40;;
55090;SDS011;40985;53.180;5.800;2023-07-20T09:10:09;3.78;;;0.25;;
55090;SDS011;40985;53.180;5.800;2023-07-20T09:12:39;1.27;;;0.20;;
55090;SDS011;40985;53.180;5.800;2023-07-20T09:15:05;1.33;;;0.20;;
55090;SDS011;40985;53.180;5.800;2023-07-20T09:17:32;1.60;;;0.20;;
55090;SDS011;40985;53.180;5.800;2023-07-20T09:19:58;0.90;;;0.20;;
55090;SDS011;40985;53.180;5.800;2023-07-20T09:22:33;4.70;;;0.30;;
55090;SDS011;40985;53.180;5.800;2023-07-20T09:24:59;1.85;;;0.30;;
55090;SDS011;40985;53.180;5.800;2023-07-20T09:27:47;2.25;;;0.43;;
55090;SDS011;40985;53.180;5.800;2023-07-20T09:30:13;1.40;;;0.30;;
55090;SDS011;40985;53.180;5.800;2023-07-20T09:32:46;2.72;;;0.30;;
55090;SDS011;40985;53.180;5.800;2023-07-20T09:35:17;1.95;;;0.30;;
55090;SDS011;40985;53.180;5.800;2023-07-20T09:37:58;3.58;;;0.57;;
55090;SDS011;40985;53.180;5.800;2023-07-20T09:40:27;4.15;;;0.95;;
55090;SDS011;40985;53.180;5.800;2023-07-20T09:42:53;0.82;;;0.20;;
55090;SDS011;40985;53.180;5.800;2023-07-20T09:45:35;2.08;;;0.55;;
55090;SDS011;40985;53.180;5.800;2023-07-20T09:48:05;0.95;;;0.20;;
55090;SDS011;40985;53.180;5.800;2023-07-20T09:50:41;0.90;;;0.25;;
55090;SDS011;40985;53.180;5.800;2023-07-20T09:53:09;3.28;;;0.63;;
55090;SDS011;40985;53.180;5.800;2023-07-20T09:55:38;2.17;;;0.30;;
55090;SDS011;40985;53.180;5.800;2023-07-20T09:58:05;1.63;;;0.22;;
55090;SDS011;40985;53.180;5.800;2023-07-20T10:00:34;1.23;;;0.20;;
55090;SDS011;40985;53.180;5.800;2023-07-20T10:03:03;1.73;;;0.30;;
55090;SDS011;40985;53.180;5.800;2023-07-20T10:05:33;2.72;;;0.25;;
55090;SDS011;40985;53.180;5.800;2023-07-20T10:08:01;2.42;;;0.30;;
55090;SDS011;40985;53.180;5.800;2023-07-20T10:10:29;1.98;;;0.50;;
55090;SDS011;40985;53.180;5.800;2023-07-20T10:13:00;1.10;;;0.20;;
55090;SDS011;40985;53.180;5.800;2023-07-20T10:15:29;4.45;;;0.30;;
55090;SDS011;40985;53.180;5.800;2023-07-20T10:18:02;3.50;;;0.30;;
55090;SDS011;40985;53.180;5.800;2023-07-20T10:20:37;1.70;;;0.30;;
55090;SDS011;40985;53.180;5.800;2023-07-20T10:23:06;1.38;;;0.60;;
55090;SDS011;40985;53.180;5.800;2023-07-20T10:25:32;2.00;;;0.20;;
55090;SDS011;40985;53.180;5.800;2023-07-20T10:28:02;3.22;;;0.30;;
55090;SDS011;40985;53.180;5.800;2023-07-20T10:30:35;2.25;;;0.20;;
55090;SDS011;40985;53.180;5.800;2023-07-20T10:33:05;1.48;;;0.30;;
55090;SDS011;40985;53.180;5.800;2023-07-20T10:35:31;1.60;;;0.20;;
55090;SDS011;40985;53.180;5.800;2023-07-20T10:41:57;1.55;;;0.40;;
55090;SDS011;40985;53.180;5.800;2023-07-20T10:44:04;1.43;;;0.30;;
55090;SDS011;40985;53.180;5.800;2023-07-20T10:46:33;1.80;;;0.30;;
55090;SDS011;40985;53.180;5.800;2023-07-20T10:49:08;1.27;;;0.30;;
55090;SDS011;40985;53.180;5.800;2023-07-20T10:51:45;3.03;;;0.43;;
55090;SDS011;40985;53.180;5.800;2023-07-20T10:56:41;1.08;;;0.30;;
55090;SDS011;40985;53.180;5.800;2023-07-20T10:59:37;2.58;;;0.43;;
55090;SDS011;40985;53.180;5.800;2023-07-20T11:01:55;1.85;;;0.38;;
55090;SDS011;40985;53.180;5.800;2023-07-20T11:04:43;1.42;;;0.30;;
55090;SDS011;40985;53.180;5.800;2023-07-20T11:07:10;4.15;;;0.40;;
55090;SDS011;40985;53.180;5.800;2023-07-20T11:09:41;3.78;;;0.30;;
55090;SDS011;40985;53.180;5.800;2023-07-20T11:12:14;7.78;;;0.50;;
55090;SDS011;40985;53.180;5.800;2023-07-20T11:14:44;4.07;;;0.30;;
55090;SDS011;40985;53.180;5.800;2023-07-20T11:17:19;2.05;;;0.70;;
55090;SDS011;40985;53.180;5.800;2023-07-20T11:19:55;3.00;;;0.40;;
55090;SDS011;40985;53.180;5.800;2023-07-20T11:22:21;0.95;;;0.30;;
55090;SDS011;40985;53.180;5.800;2023-07-20T11:24:47;1.38;;;0.30;;
55090;SDS011;40985;53.180;5.800;2023-07-20T11:27:16;2.88;;;0.40;;
55090;SDS011;40985;53.180;5.800;2023-07-20T11:29:45;1.38;;;0.30;;
55090;SDS011;40985;53.180;5.800;2023-07-20T11:32:10;1.58;;;0.30;;
55090;SDS011;40985;53.180;5.800;2023-07-20T11:34:36;1.85;;;0.30;;
55090;SDS011;40985;53.180;5.800;2023-07-20T11:37:02;3.85;;;0.30;;
55090;SDS011;40985;53.180;5.800;2023-07-20T11:39:29;6.95;;;0.52;;
55090;SDS011;40985;53.180;5.800;2023-07-20T11:41:55;0.85;;;0.30;;
55090;SDS011;40985;53.180;5.800;2023-07-20T11:44:22;1.55;;;0.40;;
55090;SDS011;40985;53.180;5.800;2023-07-20T11:47:02;2.38;;;0.40;;
55090;SDS011;40985;53.180;5.800;2023-07-20T11:49:30;3.40;;;0.30;;
55090;SDS011;40985;53.180;5.800;2023-07-20T11:52:00;1.13;;;0.30;;
55090;SDS011;40985;53.180;5.800;2023-07-20T11:54:25;0.88;;;0.28;;
55090;SDS011;40985;53.180;5.800;2023-07-20T11:56:55;1.88;;;0.25;;
55090;SDS011;40985;53.180;5.800;2023-07-20T11:59:21;1.65;;;0.30;;
55090;SDS011;40985;53.180;5.800;2023-07-20T12:01:47;2.00;;;0.55;;
55090;SDS011;40985;53.180;5.800;2023-07-20T12:04:12;2.22;;;0.55;;
55090;SDS011;40985;53.180;5.800;2023-07-20T12:06:38;3.08;;;0.30;;
55090;SDS011;40985;53.180;5.800;2023-07-20T12:09:04;1.98;;;0.35;;
55090;SDS011;40985;53.180;5.800;2023-07-20T12:11:36;2.00;;;0.22;;
55090;SDS011;40985;53.180;5.800;2023-07-20T12:14:03;1.13;;;0.40;;
55090;SDS011;40985;53.180;5.800;2023-07-20T12:16:31;1.23;;;0.22;;
55090;SDS011;40985;53.180;5.800;2023-07-20T12:19:00;4.13;;;0.40;;
55090;SDS011;40985;53.180;5.800;2023-07-20T12:21:31;3.10;;;0.20;;
55090;SDS011;40985;53.180;5.800;2023-07-20T12:23:58;2.72;;;0.30;;
55090;SDS011;40985;53.180;5.800;2023-07-20T12:26:28;0.70;;;0.30;;
55090;SDS011;40985;53.180;5.800;2023-07-20T12:28:55;0.95;;;0.30;;
55090;SDS011;40985;53.180;5.800;2023-07-20T12:31:24;1.13;;;0.20;;
55090;SDS011;40985;53.180;5.800;2023-07-20T12:33:51;3.63;;;0.30;;
55090;SDS011;40985;53.180;5.800;2023-07-20T12:36:17;3.15;;;0.25;;
55090;SDS011;40985;53.180;5.800;2023-07-20T12:38:43;1.08;;;0.30;;
55090;SDS011;40985;53.180;5.800;2023-07-20T12:41:10;0.40;;;0.20;;
55090;SDS011;40985;53.180;5.800;2023-07-20T12:43:40;0.52;;;0.20;;
55090;SDS011;40985;53.180;5.800;2023-07-20T12:46:06;1.30;;;0.20;;
55090;SDS011;40985;53.180;5.800;2023-07-20T12:48:32;1.65;;;0.30;;
55090;SDS011;40985;53.180;5.800;2023-07-20T12:50:58;1.35;;;0.20;;
55090;SDS011;40985;53.180;5.800;2023-07-20T12:53:24;2.13;;;0.43;;
55090;SDS011;40985;53.180;5.800;2023-07-20T12:55:50;3.22;;;1.75;;
55090;SDS011;40985;53.180;5.800;2023-07-20T12:58:15;2.88;;;0.30;;
55090;SDS011;40985;53.180;5.800;2023-07-20T13:00:41;1.05;;;0.20;;
55090;SDS011;40985;53.180;5.800;2023-07-20T13:03:08;1.90;;;0.20;;
55090;SDS011;40985;53.180;5.800;2023-07-20T13:05:34;0.63;;;0.20;;
55090;SDS011;40985;53.180;5.800;2023-07-20T13:08:00;0.40;;;0.20;;
55090;SDS011;40985;53.180;5.800;2023-07-20T13:10:27;1.17;;;0.20;;
55090;SDS011;40985;53.180;5.800;2023-07-20T13:12:53;1.15;;;0.20;;
55090;SDS011;40985;53.180;5.800;2023-07-20T13:15:18;1.48;;;0.20;;
55090;SDS011;40985;53.180;5.800;2023-07-20T13:17:49;1.60;;;0.30;;
55090;SDS011;40985;53.180;5.800;2023-07-20T13:20:15;1.35;;;0.20;;
55090;SDS011;40985;53.180;5.800;2023-07-20T13:22:41;1.33;;;0.30;;
55090;SDS011;40985;53.180;5.800;2023-07-20T13:25:07;2.50;;;0.20;;
55090;SDS011;40985;53.180;5.800;2023-07-20T13:27:33;3.00;;;0.10;;
55090;SDS011;40985;53.180;5.800;2023-07-20T13:29:59;0.60;;;0.20;;
55090;SDS011;40985;53.180;5.800;2023-07-20T13:32:26;0.60;;;0.30;;
55090;SDS011;40985;53.180;5.800;2023-07-20T13:34:52;1.65;;;0.20;;
55090;SDS011;40985;53.180;5.800;2023-07-20T13:37:18;7.40;;;0.63;;
55090;SDS011;40985;53.180;5.800;2023-07-20T13:39:44;0.55;;;0.20;;
55090;SDS011;40985;53.180;5.800;2023-07-20T13:42:10;1.38;;;0.20;;
55090;SDS011;40985;53.180;5.800;2023-07-20T13:44:37;1.30;;;0.20;;
55090;SDS011;40985;53.180;5.800;2023-07-20T13:47:04;3.40;;;0.30;;
55090;SDS011;40985;53.180;5.800;2023-07-20T13:49:30;1.75;;;0.20;;
55090;SDS011;40985;53.180;5.800;2023-07-20T13:51:57;2.17;;;0.20;;
55090;SDS011;40985;53.180;5.800;2023-07-20T13:54:23;1.65;;;0.20;;
55090;SDS011;40985;53.180;5.800;2023-07-20T13:56:49;2.47;;;0.20;;
55090;SDS011;40985;53.180;5.800;2023-07-20T13:59:15;0.40;;;0.20;;
55090;SDS011;40985;53.180;5.800;2023-07-20T14:01:41;0.68;;;0.20;;
55090;SDS011;40985;53.180;5.800;2023-07-20T14:04:07;1.20;;;0.20;;
55090;SDS011;40985;53.180;5.800;2023-07-20T14:06:34;0.95;;;0.20;;
55090;SDS011;40985;53.180;5.800;2023-07-20T14:09:00;0.85;;;0.20;;
55090;SDS011;40985;53.180;5.800;2023-07-20T14:11:27;0.88;;;0.28;;
55090;SDS011;40985;53.180;5.800;2023-07-20T14:13:53;3.45;;;0.30;;
55090;SDS011;40985;53.180;5.800;2023-07-20T14:16:19;0.65;;;0.20;;
55090;SDS011;40985;53.180;5.800;2023-07-20T14:18:45;2.15;;;0.30;;
55090;SDS011;40985;53.180;5.800;2023-07-20T14:21:17;1.15;;;0.30;;
55090;SDS011;40985;53.180;5.800;2023-07-20T14:23:48;0.75;;;0.30;;
55090;SDS011;40985;53.180;5.800;2023-07-20T14:26:14;1.02;;;0.30;;
55090;SDS011;40985;53.180;5.800;2023-07-20T14:28:40;0.65;;;0.20;;
55090;SDS011;40985;53.180;5.800;2023-07-20T14:31:06;1.85;;;0.20;;
55090;SDS011;40985;53.180;5.800;2023-07-20T14:33:33;1.45;;;0.20;;
55090;SDS011;40985;53.180;5.800;2023-07-20T14:35:59;2.13;;;0.30;;
55090;SDS011;40985;53.180;5.800;2023-07-20T14:38:26;0.73;;;0.30;;
55090;SDS011;40985;53.180;5.800;2023-07-20T14:40:59;1.23;;;0.40;;
55090;SDS011;40985;53.180;5.800;2023-07-20T14:43:24;1.10;;;0.30;;
55090;SDS011;40985;53.180;5.800;2023-07-20T14:45:50;1.50;;;0.30;;
55090;SDS011;40985;53.180;5.800;2023-07-20T14:48:16;1.08;;;0.30;;
55090;SDS011;40985;53.180;5.800;2023-07-20T14:50:41;1.20;;;0.30;;
55090;SDS011;40985;53.180;5.800;2023-07-20T14:53:10;3.47;;;0.32;;
55090;SDS011;40985;53.180;5.800;2023-07-20T14:55:37;0.60;;;0.25;;
55090;SDS011;40985;53.180;5.800;2023-07-20T14:58:02;2.70;;;0.28;;
55090;SDS011;40985;53.180;5.800;2023-07-20T15:00:28;1.10;;;0.30;;
55090;SDS011;40985;53.180;5.800;2023-07-20T15:02:55;2.53;;;0.20;;
55090;SDS011;40985;53.180;5.800;2023-07-20T15:05:21;4.03;;;0.38;;
55090;SDS011;40985;53.180;5.800;2023-07-20T15:07:48;1.25;;;0.30;;